Time;durP1;ratioP1;P1;durP2;ratioP2;P2;SDS_P1;SDS_P2;PMS_P1;PMS_P2;Temp;Humidity;BMP_temperature;BMP_pressure;BME280_temperature;BME280_humidity;BME280_pressure;Samples;Min_cycle;Max_cycle;Signal;HPM_P1;HPM_P2
2022/10/17 00:00:11;;;;;;;10.43;3.03;;;;;;;7.72;100.00;93623.00;2117909;27;20040;-72
2022/10/17 00:01:13;;;;;;;8.35;3.38;;;;;;;7.76;100.00;93619.19;2118224;27;20618;-71
2022/10/17 00:02:14;;;;;;;6.75;3.40;;;;;;;7.85;100.00;93626.75;2117910;27;20543;-71
2022/10/17 00:03:15;;;;;;;6.00;3.00;;;;;;;7.83;100.00;93621.06;2117519;27;20062;-72
2022/10/17 00:04:16;;;;;;;7.72;3.28;;;;;;;7.83;100.00;93623.75;2118232;27;20031;-73
2022/10/17 00:05:17;;;;;;;5.28;2.83;;;;;;;7.78;100.00;93624.13;2118540;27;20023;-73
2022/10/17 00:06:18;;;;;;;8.95;3.15;;;;;;;7.71;100.00;93619.59;2117798;27;20062;-72
2022/10/17 00:07:19;;;;;;;7.18;3.03;;;;;;;7.65;100.00;93626.44;2116837;27;20015;-71
2022/10/17 00:08:20;;;;;;;5.90;3.17;;;;;;;7.70;100.00;93625.31;2122123;27;20035;-72
2022/10/17 00:09:21;;;;;;;4.75;3.05;;;;;;;7.81;100.00;93626.00;2117618;27;20050;-74
2022/10/17 00:10:22;;;;;;;8.07;3.30;;;;;;;7.81;100.00;93623.34;2118037;27;20449;-72
2022/10/17 00:11:23;;;;;;;9.57;3.30;;;;;;;7.73;100.00;93619.22;2118112;27;20522;-74
2022/10/17 00:12:24;;;;;;;10.93;3.40;;;;;;;7.67;100.00;93629.47;2117483;27;20031;-72
2022/10/17 00:13:26;;;;;;;6.10;3.20;;;;;;;7.64;100.00;93616.97;2117765;27;20106;-72
2022/10/17 00:14:27;;;;;;;6.68;3.50;;;;;;;7.65;100.00;93628.34;2118154;27;20031;-74
2022/10/17 00:15:28;;;;;;;6.15;3.25;;;;;;;7.62;100.00;93626.44;2117684;27;20686;-74
2022/10/17 00:16:32;;;;;;;4.88;3.03;;;;;;;7.62;100.00;93623.78;2113090;27;20096;-74
2022/10/17 00:17:33;;;;;;;8.55;3.08;;;;;;;7.61;100.00;93625.69;2117748;27;20027;-74
2022/10/17 00:18:34;;;;;;;3.55;3.10;;;;;;;7.51;100.00;93624.59;2120904;27;20066;-73
2022/10/17 00:19:35;;;;;;;8.68;3.17;;;;;;;7.46;100.00;93629.50;2117941;27;20464;-73
2022/10/17 00:20:36;;;;;;;7.32;3.30;;;;;;;7.52;100.00;93634.06;2118045;27;20034;-72
2022/10/17 00:21:37;;;;;;;8.32;3.63;;;;;;;7.49;100.00;93629.50;2116744;27;20027;-73
2022/10/17 00:22:38;;;;;;;13.73;3.30;;;;;;;7.52;100.00;93631.41;2116770;27;20059;-72
2022/10/17 00:23:39;;;;;;;7.45;3.50;;;;;;;7.48;100.00;93630.66;2121122;27;20033;-73
2022/10/17 00:24:40;;;;;;;10.80;3.88;;;;;;;7.49;100.00;93629.50;2117401;27;20050;-73
2022/10/17 00:25:41;;;;;;;7.30;3.10;;;;;;;7.45;100.00;93628.00;2118022;27;20119;-73
2022/10/17 00:26:42;;;;;;;8.27;3.55;;;;;;;7.43;100.00;93633.72;2117442;27;20756;-73
2022/10/17 00:27:44;;;;;;;6.28;3.13;;;;;;;7.40;100.00;93634.47;2117883;27;20114;-74
2022/10/17 00:28:46;;;;;;;10.48;3.20;;;;;;;7.39;100.00;93635.63;2120266;27;20087;-74
2022/10/17 00:29:51;;;;;;;10.18;3.10;;;;;;;7.47;100.00;93637.13;2118167;27;20042;-73
2022/10/17 00:31:00;;;;;;;6.25;3.15;;;;;;;7.45;100.00;93636.75;2117606;27;20396;-73
2022/10/17 00:32:01;;;;;;;7.70;3.45;;;;;;;7.42;100.00;93629.53;2117424;27;20030;-73
2022/10/17 00:33:02;;;;;;;10.02;3.35;;;;;;;7.46;100.00;93629.50;2116696;27;20027;-73
2022/10/17 00:34:03;;;;;;;5.78;3.00;;;;;;;7.41;100.00;93627.25;2117888;27;20031;-72
2022/10/17 00:35:05;;;;;;;5.32;3.00;;;;;;;7.38;100.00;93633.34;2122222;27;20034;-72
2022/10/17 00:36:08;;;;;;;7.15;4.03;;;;;;;7.33;100.00;93639.78;2120495;27;20031;-74
2022/10/17 00:37:09;;;;;;;11.23;3.35;;;;;;;7.36;100.00;93631.06;2115416;27;20038;-72
2022/10/17 00:38:10;;;;;;;6.35;3.60;;;;;;;7.38;100.00;93636.75;2119212;27;20498;-72
2022/10/17 00:39:12;;;;;;;9.15;3.20;;;;;;;7.33;100.00;93629.16;2116683;27;20076;-72
2022/10/17 00:40:13;;;;;;;9.07;3.30;;;;;;;7.40;100.00;93626.50;2120409;27;20053;-73
2022/10/17 00:41:17;;;;;;;9.25;3.22;;;;;;;7.28;100.00;93638.28;2114593;27;20030;-73
2022/10/17 00:42:18;;;;;;;7.13;3.30;;;;;;;7.27;100.00;93634.09;2117707;27;20358;-73
2022/10/17 00:43:19;;;;;;;9.18;3.20;;;;;;;7.42;100.00;93634.06;2116545;27;20043;-73
2022/10/17 00:44:29;;;;;;;7.38;3.38;;;;;;;7.39;100.00;93632.19;2117279;27;20023;-72
2022/10/17 00:45:30;;;;;;;8.00;3.63;;;;;;;7.41;100.00;93635.22;2117490;27;20042;-74
2022/10/17 00:46:36;;;;;;;9.85;3.28;;;;;;;7.37;100.00;93632.56;2117164;27;20413;-74
2022/10/17 00:47:38;;;;;;;5.40;3.25;;;;;;;7.25;100.00;93633.72;2109299;28;20059;-74
2022/10/17 00:48:39;;;;;;;9.35;3.50;;;;;;;7.29;100.00;93634.50;2117176;27;20445;-73
2022/10/17 00:49:41;;;;;;;5.32;3.28;;;;;;;7.25;100.00;93633.72;2118523;27;20148;-74
2022/10/17 00:50:47;;;;;;;8.07;3.20;;;;;;;7.25;100.00;93633.72;2118938;27;20118;-73
2022/10/17 00:51:53;;;;;;;5.28;3.38;;;;;;;7.26;100.00;93626.50;2120793;27;20107;-72
2022/10/17 00:52:57;;;;;;;10.18;3.67;;;;;;;7.30;100.00;93637.91;2117696;27;20461;-74
2022/10/17 00:53:59;;;;;;;13.90;3.40;;;;;;;7.28;100.00;93632.19;2117803;27;20399;-74
2022/10/17 00:55:05;;;;;;;7.03;2.83;;;;;;;7.23;100.00;93630.69;2118270;27;20026;-72
2022/10/17 00:56:07;;;;;;;7.32;3.40;;;;;;;7.22;100.00;93633.72;2119103;27;20453;-74
2022/10/17 00:57:09;;;;;;;9.32;3.40;;;;;;;7.22;100.00;93631.84;2117507;27;20038;-74
2022/10/17 00:58:10;;;;;;;4.82;3.50;;;;;;;7.16;100.00;93630.72;2117441;27;20088;-72
2022/10/17 00:59:14;;;;;;;7.78;3.35;;;;;;;7.18;100.00;93633.72;2115875;27;20035;-73
2022/10/17 01:00:16;;;;;;;20.17;3.45;;;;;;;7.17;100.00;93628.81;2118023;27;20072;-72
2022/10/17 01:01:17;;;;;;;7.55;3.60;;;;;;;7.15;100.00;93629.16;2118844;27;20160;-74
2022/10/17 01:02:20;;;;;;;10.40;3.20;;;;;;;7.18;100.00;93632.97;2117215;27;20028;-72
2022/10/17 01:03:21;;;;;;;10.02;3.35;;;;;;;7.21;100.00;93624.25;2116330;27;20031;-72
2022/10/17 01:04:22;;;;;;;9.57;3.92;;;;;;;7.21;100.00;93626.91;2116553;27;20019;-72
2022/10/17 01:05:23;;;;;;;8.32;3.75;;;;;;;7.10;100.00;93631.44;2119753;27;20051;-73
2022/10/17 01:06:24;;;;;;;6.32;3.03;;;;;;;7.10;100.00;93644.75;2121791;27;20031;-73
2022/10/17 01:07:28;;;;;;;10.57;3.55;;;;;;;7.05;100.00;93636.00;2117684;27;20601;-72
2022/10/17 01:08:29;;;;;;;8.68;3.40;;;;;;;7.09;100.00;93627.28;2117530;27;20027;-71
2022/10/17 01:09:30;;;;;;;4.97;3.03;;;;;;;7.12;100.00;93626.53;2108568;28;20032;-73
2022/10/17 01:11:09;;;;;;;13.55;3.40;;;;;;;7.09;100.00;93620.06;2118771;27;20612;-72
2022/10/17 01:12:31;;;;;;;8.55;3.67;;;;;;;7.01;100.00;93626.53;2120013;27;20480;-74
2022/10/17 01:13:48;;;;;;;8.77;3.45;;;;;;;7.12;100.00;93626.53;2118614;27;20027;-73
2022/10/17 01:15:04;;;;;;;8.82;3.00;;;;;;;7.04;100.00;93623.88;2117579;27;20479;-73
2022/10/17 01:16:30;;;;;;;4.35;2.97;;;;;;;7.08;100.00;93623.88;2117817;27;20042;-73
2022/10/17 01:17:52;;;;;;;6.93;3.70;;;;;;;7.10;100.00;93620.81;2117517;27;20059;-73
2022/10/17 01:19:15;;;;;;;6.20;3.00;;;;;;;7.11;100.00;93630.31;2117607;27;20598;-74
2022/10/17 01:20:59;;;;;;;7.32;3.15;;;;;;;7.06;100.00;93628.78;2117372;27;20497;-72
2022/10/17 01:22:22;;;;;;;6.28;2.92;;;;;;;7.02;100.00;93620.84;2119686;27;20128;-71
2022/10/17 01:23:54;;;;;;;10.02;3.30;;;;;;;6.84;100.00;93636.00;2117135;27;20066;-73
2022/10/17 01:25:07;;;;;;;7.00;3.30;;;;;;;6.94;100.00;93624.63;2117208;27;20039;-72
2022/10/17 01:26:49;;;;;;;6.47;3.13;;;;;;;7.02;100.00;93628.03;2117525;27;20447;-73
2022/10/17 01:27:50;;;;;;;4.55;3.13;;;;;;;6.99;100.00;93626.91;2116827;27;20020;-73
2022/10/17 01:28:51;;;;;;;6.88;3.15;;;;;;;7.01;100.00;93635.25;2116207;27;20740;-72
2022/10/17 01:29:58;;;;;;;9.30;3.17;;;;;;;6.95;100.00;93626.16;2116844;27;20050;-72
2022/10/17 01:31:13;;;;;;;5.47;3.28;;;;;;;6.92;100.00;93623.47;2116805;27;20384;-74
2022/10/17 01:32:21;;;;;;;10.90;3.20;;;;;;;6.92;100.00;93621.59;2119047;27;20377;-72
2022/10/17 01:33:54;;;;;;;6.35;3.10;;;;;;;6.95;100.00;93620.84;2116988;27;20036;-72
2022/10/17 01:35:28;;;;;;;5.55;3.10;;;;;;;6.95;100.00;93625.38;2107215;27;20046;-72
2022/10/17 01:36:56;;;;;;;8.55;3.28;;;;;;;6.92;100.00;93610.94;2094982;28;20040;-72
2022/10/17 01:38:11;;;;;;;11.07;3.10;;;;;;;6.93;100.00;93617.03;2098796;28;20031;-73
2022/10/17 01:39:31;;;;;;;9.65;2.60;;;;;;;6.87;100.00;93619.31;2117191;27;20027;-73
2022/10/17 01:40:32;;;;;;;5.88;2.88;;;;;;;6.85;100.00;93624.25;2116939;27;20034;-73
2022/10/17 01:41:38;;;;;;;7.25;2.75;;;;;;;6.89;100.00;93624.22;2117224;27;20558;-73
2022/10/17 01:42:52;;;;;;;5.93;3.30;;;;;;;6.83;100.00;93615.88;2121171;27;20027;-74
2022/10/17 01:44:33;;;;;;;9.95;2.90;;;;;;;6.87;100.00;93616.66;2117277;27;20024;-72
2022/10/17 01:45:47;;;;;;;10.98;3.30;;;;;;;6.89;100.00;93614.38;2117043;27;20043;-72
2022/10/17 01:46:53;;;;;;;7.20;2.97;;;;;;;6.82;100.00;93617.03;2117131;27;20023;-72
2022/10/17 01:47:57;;;;;;;12.05;3.00;;;;;;;6.86;100.00;93617.78;2120958;27;20022;-73
2022/10/17 01:49:00;;;;;;;3.05;2.67;;;;;;;6.82;100.00;93620.44;2118124;27;20063;-73
2022/10/17 01:50:17;;;;;;;5.13;3.25;;;;;;;6.92;100.00;93620.81;2114281;27;20118;-73
2022/10/17 01:51:25;;;;;;;7.00;2.78;;;;;;;6.91;100.00;93620.06;2113794;28;20031;-73
2022/10/17 01:52:36;;;;;;;9.80;3.10;;;;;;;6.94;100.00;93621.22;2115999;27;20656;-72
2022/10/17 01:53:45;;;;;;;6.65;2.88;;;;;;;6.91;100.00;93627.28;2118698;27;20106;-72
2022/10/17 01:55:41;;;;;;;4.85;2.63;;;;;;;6.86;100.00;93625.75;2117091;27;20753;-72
2022/10/17 01:56:45;;;;;;;5.30;2.78;;;;;;;6.98;100.00;93621.94;2112174;27;20042;-71
2022/10/17 01:57:51;;;;;;;5.38;2.95;;;;;;;6.96;100.00;93616.28;2117990;27;20512;-72
2022/10/17 01:59:13;;;;;;;6.53;3.10;;;;;;;6.94;100.00;93619.31;2120950;27;20015;-73
2022/10/17 02:00:18;;;;;;;7.10;2.67;;;;;;;6.97;100.00;93617.78;2116526;27;20023;-71
2022/10/17 02:01:20;;;;;;;3.97;2.60;;;;;;;6.96;100.00;93619.69;2117027;27;20519;-72
2022/10/17 02:02:24;;;;;;;5.55;2.33;;;;;;;6.91;100.00;93621.97;2116660;27;20599;-73
2022/10/17 02:03:27;;;;;;;5.95;2.75;;;;;;;6.97;100.00;93625.75;2115846;27;20035;-72
2022/10/17 02:04:28;;;;;;;4.15;2.13;;;;;;;6.98;100.00;93628.06;2117092;27;20095;-73
2022/10/17 02:05:37;;;;;;;4.15;1.90;;;;;;;6.92;100.00;93621.59;2117047;27;20031;-71
2022/10/17 02:06:38;;;;;;;3.25;2.20;;;;;;;6.91;100.00;93632.59;2115995;27;20026;-73
2022/10/17 02:07:42;;;;;;;4.47;2.20;;;;;;;6.88;100.00;93630.69;2107442;28;20032;-72
2022/10/17 02:08:49;;;;;;;6.70;2.13;;;;;;;6.85;100.00;93636.75;2116093;27;20028;-72
2022/10/17 02:09:50;;;;;;;4.03;2.10;;;;;;;6.89;100.00;93632.19;2117664;27;20028;-72
2022/10/17 02:11:05;;;;;;;2.05;1.85;;;;;;;6.84;100.00;93637.91;2120808;27;20516;-73
2022/10/17 02:12:46;;;;;;;3.55;2.45;;;;;;;6.90;100.00;93634.50;2115951;28;20422;-71
2022/10/17 02:16:12;;;;;;;;;;;;;;;6.85;100.00;93640.19;2145362;27;20542;-72
2022/10/17 02:17:35;;;;;;;2.92;1.88;;;;;;;6.86;100.00;93643.59;2128161;27;20440;-72
2022/10/17 02:19:05;;;;;;;4.32;2.28;;;;;;;6.85;100.00;93642.06;2128512;27;20368;-72
2022/10/17 02:20:12;;;;;;;6.15;2.05;;;;;;;6.81;100.00;93642.84;2134624;27;20022;-73
2022/10/17 02:21:35;;;;;;;3.50;2.40;;;;;;;6.86;100.00;93639.06;2127988;27;20503;-73
2022/10/17 02:22:36;;;;;;;5.13;2.47;;;;;;;6.90;100.00;93639.06;2124509;27;20423;-73
2022/10/17 02:23:52;;;;;;;3.00;2.70;;;;;;;6.91;100.00;93635.25;2137288;27;20030;-73
2022/10/17 02:25:07;;;;;;;3.85;2.53;;;;;;;6.79;100.00;93645.09;2136067;27;20029;-72
2022/10/17 02:26:32;;;;;;;2.70;2.50;;;;;;;6.73;100.00;93641.31;2134850;27;20027;-72
2022/10/17 02:27:51;;;;;;;7.63;2.22;;;;;;;6.78;100.00;93640.19;2134118;27;20094;-72
2022/10/17 02:29:01;;;;;;;5.38;2.85;;;;;;;6.73;100.00;93637.91;2137395;27;20516;-73
2022/10/17 02:30:02;;;;;;;;;;;;;;;6.73;100.00;93635.25;2133357;27;20074;-70
2022/10/17 02:31:10;;;;;;;2.45;2.25;;;;;;;6.77;100.00;93636.75;2136629;27;19993;-73
2022/10/17 02:32:27;;;;;;;2.60;2.40;;;;;;;6.82;100.00;93639.03;2127929;27;20030;-73
2022/10/17 02:33:33;;;;;;;7.15;2.80;;;;;;;6.89;100.00;93640.97;2126693;27;20037;-74
2022/10/17 02:34:42;;;;;;;3.88;2.80;;;;;;;6.87;100.00;93635.25;2137360;27;20079;-73
2022/10/17 02:35:49;;;;;;;4.05;3.00;;;;;;;6.87;100.00;93643.22;2135101;27;20022;-73
2022/10/17 02:36:57;;;;;;;3.20;2.90;;;;;;;6.91;100.00;93635.25;2137028;27;20042;-73
2022/10/17 02:37:59;;;;;;;4.75;2.70;;;;;;;6.84;100.00;93637.91;2137470;27;20030;-72
2022/10/17 02:39:03;;;;;;;4.20;2.65;;;;;;;6.86;100.00;93633.75;2137365;27;20468;-72
2022/10/17 02:40:05;;;;;;;7.53;2.97;;;;;;;6.88;100.00;93636.00;2136645;27;20026;-71
2022/10/17 02:41:10;;;;;;;7.15;2.80;;;;;;;6.86;100.00;93632.97;2136923;27;20022;-72
2022/10/17 02:42:12;;;;;;;3.00;2.58;;;;;;;6.86;100.00;93640.94;2137257;27;20501;-72
2022/10/17 02:43:14;;;;;;;3.08;2.78;;;;;;;6.90;100.00;93641.72;2136806;27;20105;-72
2022/10/17 02:44:15;;;;;;;6.32;2.60;;;;;;;6.95;100.00;93636.03;2137193;27;20030;-72
2022/10/17 02:45:17;;;;;;;5.07;3.05;;;;;;;6.90;100.00;93642.47;2136441;27;20087;-74
2022/10/17 02:46:23;;;;;;;11.85;2.88;;;;;;;7.03;100.00;93643.63;2137172;27;20034;-73
2022/10/17 02:47:45;;;;;;;5.45;3.03;;;;;;;7.03;100.00;93643.63;2136815;27;20083;-72
2022/10/17 02:48:52;;;;;;;9.02;3.15;;;;;;;6.88;100.00;93650.03;2135605;27;20465;-72
2022/10/17 02:49:56;;;;;;;3.30;2.83;;;;;;;6.87;100.00;93648.53;2137402;27;20097;-73
2022/10/17 02:51:07;;;;;;;5.75;2.75;;;;;;;6.90;100.00;93649.69;2136610;27;20026;-73
2022/10/17 02:52:34;;;;;;;11.85;2.92;;;;;;;6.81;100.00;93637.53;2136734;27;20485;-71
2022/10/17 02:54:01;;;;;;;5.38;2.90;;;;;;;6.83;100.00;93642.47;2125792;27;20041;-72
2022/10/17 02:55:11;;;;;;;8.10;2.80;;;;;;;6.73;100.00;93638.66;2133443;27;20781;-72
2022/10/17 02:56:21;;;;;;;2.93;2.37;;;;;;;6.84;100.00;93640.56;2136381;27;20049;-73
2022/10/17 02:57:49;;;;;;;4.57;2.70;;;;;;;6.87;100.00;93643.22;2137158;27;20450;-72
2022/10/17 02:58:54;;;;;;;3.78;2.60;;;;;;;6.82;100.00;93635.63;2127090;27;20127;-71
2022/10/17 02:59:59;;;;;;;3.60;2.35;;;;;;;6.80;100.00;93636.00;2124324;27;20113;-74
2022/10/17 03:01:00;;;;;;;4.72;2.95;;;;;;;6.83;100.00;93637.13;2135809;27;20387;-73
2022/10/17 03:02:04;;;;;;;6.25;2.85;;;;;;;6.82;100.00;93638.28;2136641;27;20028;-73
2022/10/17 03:03:27;;;;;;;6.72;3.10;;;;;;;6.70;100.00;93636.00;2136926;27;20022;-73
2022/10/17 03:04:28;;;;;;;5.63;2.78;;;;;;;6.57;100.00;93632.94;2133634;27;20501;-73
2022/10/17 03:05:29;;;;;;;5.63;2.60;;;;;;;6.57;100.00;93633.69;2137541;27;20030;-73
2022/10/17 03:06:30;;;;;;;11.55;2.72;;;;;;;6.59;100.00;93636.00;2136648;27;20376;-74
2022/10/17 03:07:31;;;;;;;7.82;2.80;;;;;;;6.50;100.00;93635.59;2136934;27;20026;-72
2022/10/17 03:08:32;;;;;;;4.90;2.63;;;;;;;6.43;100.00;93640.88;2128092;27;20022;-73
2022/10/17 03:09:32;;;;;;;3.85;2.88;;;;;;;6.45;100.00;93641.25;2128231;27;20046;-72
2022/10/17 03:10:33;;;;;;;4.50;2.70;;;;;;;6.50;100.00;93631.03;2137258;27;20026;-73
2022/10/17 03:11:35;;;;;;;8.35;3.13;;;;;;;6.51;100.00;93632.56;2136881;27;20379;-73
2022/10/17 03:12:36;;;;;;;8.35;2.88;;;;;;;6.52;100.00;93636.72;2136901;27;20030;-72
2022/10/17 03:13:37;;;;;;;4.18;3.17;;;;;;;6.46;100.00;93632.94;2136384;27;20034;-73
2022/10/17 03:14:38;;;;;;;9.05;2.67;;;;;;;6.46;100.00;93640.13;2136701;27;20460;-72
2022/10/17 03:15:39;;;;;;;4.00;2.75;;;;;;;6.38;100.00;93639.34;2136625;27;20050;-71
2022/10/17 03:16:40;;;;;;;13.02;2.80;;;;;;;6.43;100.00;93641.63;2133454;27;20114;-72
2022/10/17 03:17:41;;;;;;;3.22;2.55;;;;;;;6.37;100.00;93645.81;2136877;27;20027;-74
2022/10/17 03:18:42;;;;;;;7.47;3.22;;;;;;;6.39;100.00;93642.75;2136985;27;20036;-71
2022/10/17 03:19:43;;;;;;;8.05;3.17;;;;;;;6.41;100.00;93643.13;2136287;27;20043;-71
2022/10/17 03:20:44;;;;;;;4.65;2.85;;;;;;;6.42;100.00;93637.47;2136592;27;20357;-73
2022/10/17 03:21:45;;;;;;;3.72;2.92;;;;;;;6.39;100.00;93638.22;2136286;27;20100;-72
2022/10/17 03:22:46;;;;;;;4.47;2.83;;;;;;;6.34;100.00;93645.78;2136702;27;20051;-72
2022/10/17 03:23:48;;;;;;;14.27;3.33;;;;;;;6.29;100.00;93644.25;2136674;27;20023;-71
2022/10/17 03:24:49;;;;;;;4.28;2.97;;;;;;;6.34;100.00;93641.22;2136898;27;20026;-71
2022/10/17 03:25:50;;;;;;;7.10;2.90;;;;;;;6.34;100.00;93638.56;2136398;27;20042;-73
2022/10/17 03:26:51;;;;;;;8.75;3.10;;;;;;;6.21;100.00;93642.72;2133737;27;20257;-72
2022/10/17 03:27:52;;;;;;;10.82;2.75;;;;;;;6.32;100.00;93643.50;2130987;27;20416;-73
2022/10/17 03:28:53;;;;;;;5.82;2.90;;;;;;;6.31;100.00;93647.28;2121962;27;20035;-73
2022/10/17 03:29:54;;;;;;;3.58;2.78;;;;;;;6.32;100.00;93651.44;2121867;27;20019;-73
2022/10/17 03:30:55;;;;;;;4.53;2.80;;;;;;;6.30;100.00;93646.53;2130918;27;20031;-73
2022/10/17 03:31:56;;;;;;;9.35;2.90;;;;;;;6.30;100.00;93640.47;2129896;27;20368;-73
2022/10/17 03:32:57;;;;;;;6.53;3.08;;;;;;;6.29;100.00;93641.59;2130602;27;20023;-72
2022/10/17 03:34:01;;;;;;;5.05;2.63;;;;;;;6.26;100.00;93643.09;2131133;27;20034;-73
2022/10/17 03:35:02;;;;;;;4.38;2.80;;;;;;;6.28;100.00;93642.75;2130783;27;20030;-72
2022/10/17 03:36:08;;;;;;;13.32;3.15;;;;;;;6.22;100.00;93644.97;2131081;27;20023;-73
2022/10/17 03:37:09;;;;;;;5.55;2.88;;;;;;;6.28;100.00;93648.81;2128006;27;20489;-71
2022/10/17 03:38:10;;;;;;;9.93;2.80;;;;;;;6.30;100.00;93646.53;2123751;27;20023;-72
2022/10/17 03:39:11;;;;;;;5.35;2.95;;;;;;;6.31;100.00;93652.59;2130635;27;20037;-72
2022/10/17 03:40:12;;;;;;;6.82;3.00;;;;;;;6.28;100.00;93653.34;2131267;27;20022;-73
2022/10/17 03:41:13;;;;;;;7.70;3.13;;;;;;;6.24;100.00;93653.34;2130839;27;20438;-72
2022/10/17 03:42:14;;;;;;;8.55;3.10;;;;;;;6.27;100.00;93654.47;2130027;27;20457;-71
2022/10/17 03:43:15;;;;;;;5.57;2.40;;;;;;;6.23;100.00;93649.19;2130845;27;20050;-72
2022/10/17 03:44:15;;;;;;;14.75;3.05;;;;;;;6.28;100.00;93648.81;2130898;27;20031;-72
2022/10/17 03:45:16;;;;;;;12.32;3.17;;;;;;;6.14;100.00;93655.94;2131684;27;20166;-72
2022/10/17 03:46:17;;;;;;;8.27;3.15;;;;;;;6.17;100.00;93660.50;2131827;27;20058;-73
2022/10/17 03:47:18;;;;;;;10.13;3.10;;;;;;;6.10;100.00;93653.28;2120825;27;20080;-73
2022/10/17 03:48:19;;;;;;;12.18;3.90;;;;;;;6.14;100.00;93659.34;2113510;28;20032;-71
2022/10/17 03:49:20;;;;;;;7.13;2.92;;;;;;;6.16;100.00;93654.44;2130435;27;20023;-71
2022/10/17 03:50:21;;;;;;;8.73;3.28;;;;;;;6.16;100.00;93649.16;2131015;27;20042;-72
2022/10/17 03:51:23;;;;;;;10.07;2.85;;;;;;;6.18;100.00;93649.50;2121249;27;20094;-71
2022/10/17 03:52:24;;;;;;;11.07;2.85;;;;;;;6.11;100.00;93654.81;2121755;27;20027;-72
2022/10/17 03:53:25;;;;;;;8.77;2.75;;;;;;;6.14;100.00;93648.75;2120681;27;20477;-71
2022/10/17 03:54:26;;;;;;;6.00;3.17;;;;;;;6.05;100.00;93649.09;2100588;28;20024;-71
2022/10/17 03:55:27;;;;;;;9.35;3.28;;;;;;;6.05;100.00;93649.09;2113310;27;20815;-72
2022/10/17 03:56:28;;;;;;;7.57;2.60;;;;;;;6.19;100.00;93653.72;2130517;27;20031;-72
2022/10/17 03:57:29;;;;;;;11.73;3.42;;;;;;;6.08;100.00;93654.78;2130475;27;20065;-73
2022/10/17 03:58:31;;;;;;;7.43;3.15;;;;;;;6.11;100.00;93654.81;2130190;27;20037;-72
2022/10/17 03:59:33;;;;;;;9.95;2.97;;;;;;;6.09;100.00;93651.75;2130792;27;20027;-73
2022/10/17 04:00:35;;;;;;;4.10;2.67;;;;;;;6.10;100.00;93655.16;2130801;27;20026;-72
2022/10/17 04:01:36;;;;;;;7.32;2.92;;;;;;;6.11;100.00;93654.81;2130767;27;20101;-72
2022/10/17 04:02:37;;;;;;;4.72;3.00;;;;;;;6.07;100.00;93653.28;2130305;27;20023;-72
2022/10/17 04:03:39;;;;;;;12.27;2.90;;;;;;;6.09;100.00;93656.31;2129665;27;20037;-71
2022/10/17 04:04:40;;;;;;;10.27;2.83;;;;;;;6.06;100.00;93655.19;2130672;27;20033;-72
2022/10/17 04:05:41;;;;;;;6.28;3.10;;;;;;;6.05;100.00;93659.69;2130881;27;20046;-72
2022/10/17 04:06:42;;;;;;;4.35;2.63;;;;;;;6.08;100.00;93662.75;2130992;27;20027;-71
2022/10/17 04:07:42;;;;;;;5.07;3.20;;;;;;;6.08;100.00;93657.44;2130761;27;20066;-71
2022/10/17 04:08:44;;;;;;;5.20;2.63;;;;;;;6.00;100.00;93662.72;2130024;27;20046;-73
2022/10/17 04:09:45;;;;;;;5.82;2.85;;;;;;;5.97;100.00;93660.03;2130138;27;20101;-71
2022/10/17 04:10:46;;;;;;;8.25;2.85;;;;;;;6.06;100.00;93660.47;2130419;27;20030;-72
2022/10/17 04:11:47;;;;;;;4.18;2.65;;;;;;;6.03;100.00;93664.63;2112961;28;20047;-73
2022/10/17 04:12:47;;;;;;;7.32;3.10;;;;;;;5.98;100.00;93659.69;2104772;28;20028;-72
2022/10/17 04:13:56;;;;;;;6.85;2.70;;;;;;;5.99;100.00;93661.19;2120917;27;20049;-73
2022/10/17 04:14:57;;;;;;;9.60;3.35;;;;;;;6.01;100.00;93666.13;2126682;27;20109;-71
2022/10/17 04:16:01;;;;;;;4.03;2.70;;;;;;;5.89;100.00;93664.56;2130333;27;20055;-73
2022/10/17 04:17:02;;;;;;;6.88;2.75;;;;;;;5.96;100.00;93667.25;2130404;27;20029;-71
2022/10/17 04:18:03;;;;;;;7.18;3.22;;;;;;;5.95;100.00;93662.31;2130948;27;20037;-72
2022/10/17 04:19:04;;;;;;;9.15;2.88;;;;;;;5.96;100.00;93653.97;2129763;27;20050;-72
2022/10/17 04:20:06;;;;;;;5.35;3.00;;;;;;;5.97;100.00;93662.69;2130647;27;20732;-71
2022/10/17 04:21:07;;;;;;;5.95;2.95;;;;;;;5.83;100.00;93660.72;2130277;27;20044;-70
2022/10/17 04:22:08;;;;;;;6.60;3.08;;;;;;;5.91;100.00;93656.22;2130411;27;20034;-72
2022/10/17 04:23:09;;;;;;;5.45;2.88;;;;;;;5.92;100.00;93652.44;2130855;27;20126;-74
2022/10/17 04:24:11;;;;;;;5.75;2.90;;;;;;;5.93;100.00;93654.75;2128138;27;20030;-72
2022/10/17 04:25:11;;;;;;;10.18;2.97;;;;;;;5.91;100.00;93662.28;2130694;27;20022;-72
2022/10/17 04:26:12;;;;;;;4.93;2.72;;;;;;;5.80;100.00;93662.22;2130964;27;20033;-73
2022/10/17 04:27:14;;;;;;;8.25;3.05;;;;;;;5.96;100.00;93655.88;2130797;27;20034;-70
2022/10/17 04:28:15;;;;;;;10.43;3.30;;;;;;;5.94;100.00;93661.56;2130139;27;20025;-71
2022/10/17 04:29:16;;;;;;;10.32;3.13;;;;;;;5.96;100.00;93658.53;2129500;27;20456;-70
2022/10/17 04:30:17;;;;;;;9.48;2.97;;;;;;;5.89;100.00;93656.59;2121191;27;20027;-71
2022/10/17 04:31:18;;;;;;;6.90;2.60;;;;;;;5.93;100.00;93659.28;2121545;27;20027;-70
2022/10/17 04:32:19;;;;;;;12.63;3.28;;;;;;;5.97;100.00;93657.38;2130700;27;20046;-70
2022/10/17 04:33:20;;;;;;;13.23;3.33;;;;;;;5.97;100.00;93660.81;2130543;27;20141;-72
2022/10/17 04:34:21;;;;;;;9.45;2.80;;;;;;;5.96;100.00;93663.84;2130094;27;20079;-70
2022/10/17 04:35:22;;;;;;;10.15;2.97;;;;;;;5.92;100.00;93665.72;2129596;27;20126;-72
2022/10/17 04:36:23;;;;;;;24.10;3.40;;;;;;;5.97;100.00;93658.19;2130480;27;20129;-71
2022/10/17 04:37:24;;;;;;;11.52;2.63;;;;;;;5.98;100.00;93670.31;2130496;27;20026;-72
2022/10/17 04:38:27;;;;;;;5.85;2.63;;;;;;;6.02;100.00;93660.47;2130188;27;20030;-71
2022/10/17 04:39:29;;;;;;;11.90;3.30;;;;;;;6.03;100.00;93658.56;2126001;27;20027;-72
2022/10/17 04:40:29;;;;;;;5.75;2.95;;;;;;;6.04;100.00;93663.50;2128532;27;20698;-71
2022/10/17 04:41:31;;;;;;;11.15;3.17;;;;;;;6.04;100.00;93660.09;2130225;27;20035;-70
2022/10/17 04:42:32;;;;;;;5.85;3.28;;;;;;;6.02;100.00;93665.78;2130441;27;20480;-71
2022/10/17 04:43:38;;;;;;;7.68;3.08;;;;;;;6.03;100.00;93659.31;2124689;27;20030;-70
2022/10/17 04:44:39;;;;;;;4.25;2.90;;;;;;;6.09;100.00;93666.94;2126382;27;20672;-70
2022/10/17 04:45:40;;;;;;;4.90;2.80;;;;;;;6.04;100.00;93666.16;2126469;27;20031;-72
2022/10/17 04:46:42;;;;;;;5.95;2.75;;;;;;;5.98;100.00;93667.66;2127671;27;20038;-70
2022/10/17 04:47:43;;;;;;;7.43;3.08;;;;;;;5.94;100.00;93666.13;2126952;27;20084;-72
2022/10/17 04:48:44;;;;;;;4.88;2.75;;;;;;;5.92;100.00;93669.13;2126149;27;20034;-69
2022/10/17 04:49:45;;;;;;;9.65;2.78;;;;;;;5.93;100.00;93667.25;2127491;27;20027;-72
2022/10/17 04:51:01;;;;;;;4.05;2.90;;;;;;;5.95;100.00;93671.03;2122430;27;20015;-70
2022/10/17 04:52:02;;;;;;;3.65;2.70;;;;;;;5.94;100.00;93668.75;2119674;27;20121;-70
2022/10/17 04:53:07;;;;;;;4.07;2.65;;;;;;;5.86;100.00;93665.28;2124357;27;20071;-70
2022/10/17 04:54:08;;;;;;;8.63;2.75;;;;;;;5.89;100.00;93669.84;2127724;27;20710;-71
2022/10/17 04:55:09;;;;;;;6.13;3.30;;;;;;;5.95;100.00;93671.03;2127313;27;20114;-70
2022/10/17 04:56:11;;;;;;;3.38;2.75;;;;;;;5.95;100.00;93670.28;2109541;28;20049;-72
2022/10/17 04:57:12;;;;;;;4.32;2.90;;;;;;;5.97;100.00;93668.00;2110487;27;20024;-72
2022/10/17 04:58:13;;;;;;;6.22;2.90;;;;;;;5.93;100.00;93668.00;2127866;27;20126;-72
2022/10/17 04:59:14;;;;;;;3.10;2.78;;;;;;;5.96;100.00;93663.84;2128088;27;20026;-71
2022/10/17 05:00:15;;;;;;;4.15;2.80;;;;;;;5.98;100.00;93664.25;2127396;27;20034;-70
2022/10/17 05:01:19;;;;;;;7.00;2.95;;;;;;;5.98;100.00;93662.34;2126060;27;20038;-70
2022/10/17 05:02:20;;;;;;;5.57;2.78;;;;;;;5.97;100.00;93660.03;2127733;27;20027;-74
2022/10/17 05:03:21;;;;;;;3.28;2.97;;;;;;;6.03;100.00;93661.22;2118732;27;20050;-72
2022/10/17 05:04:22;;;;;;;7.38;2.78;;;;;;;6.15;100.00;93660.13;2109958;28;20031;-71
2022/10/17 05:05:23;;;;;;;10.05;2.67;;;;;;;6.19;100.00;93652.94;2119051;27;20068;-70
2022/10/17 05:06:27;;;;;;;4.07;2.63;;;;;;;6.12;100.00;93658.22;2126599;27;20057;-70
2022/10/17 05:07:28;;;;;;;4.22;2.80;;;;;;;6.10;100.00;93663.13;2124072;27;20031;-70
2022/10/17 05:08:31;;;;;;;7.60;3.13;;;;;;;6.13;100.00;93670.34;2128462;27;20046;-70
2022/10/17 05:09:33;;;;;;;9.52;2.78;;;;;;;6.14;100.00;93662.00;2119010;27;20035;-71